Flight Track Log - Related Links

Times and Time Zones

All times are in EDT time to prevent confusion due to time zone crossing. See the CES2375 flight status page for this flight to view local times or setup timezone preferences in your user account.

Time Position Orientation Groundspeed Altitude Reporting Facility
EDT Latitude Longitude Course Direction KTS MPH feet Rate Location/Type
Fri 02:22:00 AM 35.9819 99.0693 284° West  Level Estimated
Fri 02:23:00 AM 35.9973 98.9361 278° West  Level Estimated
Fri 02:24:00 AM 36.0125 98.8029 278° West  Level Estimated
Fri 02:25:00 AM 36.0276 98.6696 278° West  Level Estimated
Fri 02:26:00 AM 36.0425 98.5363 278° West  Level Estimated
Fri 02:27:00 AM 36.0573 98.4029 278° West  Level Estimated
Fri 02:28:00 AM 36.0719 98.2695 278° West  Level Estimated
Fri 02:29:00 AM 36.0864 98.1360 278° West  Level Estimated
Fri 02:30:00 AM 36.1007 98.0025 278° West  Level Estimated
Fri 02:31:00 AM 36.1149 97.8689 278° West  Level Estimated
Fri 02:32:00 AM 36.1290 97.7353 277° West  Level Estimated
Fri 02:33:00 AM 36.1429 97.6016 277° West  Level Estimated
Fri 02:34:00 AM 36.1566 97.4679 277° West  Level Estimated
Fri 02:35:00 AM 36.1702 97.3342 277° West  Level Estimated
Fri 02:36:00 AM 36.1837 97.2004 277° West  Level Estimated
Fri 02:37:00 AM 36.1970 97.0665 277° West  Level Estimated
Fri 02:38:00 AM 36.2101 96.9326 277° West  Level Estimated
Fri 02:39:00 AM 36.2231 96.7987 277° West  Level Estimated
Fri 02:40:00 AM 36.2360 96.6647 277° West  Level Estimated
Fri 02:41:00 AM 36.2487 96.5307 277° West  Level Estimated
Fri 02:42:00 AM 36.2612 96.3966 277° West  Level Estimated
Fri 02:43:00 AM 36.2736 96.2625 277° West  Level Estimated
Fri 02:44:00 AM 36.2859 96.1283 277° West  Level Estimated
Fri 02:45:00 AM 36.2980 95.9941 276° West  Level Estimated
Fri 02:46:00 AM 36.3099 95.8599 276° West  Level Estimated
Fri 02:47:00 AM 36.3217 95.7256 276° West  Level Estimated
Fri 02:48:00 AM 36.3334 95.5913 276° West  Level Estimated
Fri 02:49:00 AM 36.3449 95.4569 276° West  Level Estimated
Fri 02:50:00 AM 36.3562 95.3225 276° West  Level Estimated
Fri 02:51:00 AM 36.3674 95.1881 276° West  Level Estimated
Fri 02:52:00 AM 36.3785 95.0536 276° West  Level Estimated
Fri 02:53:00 AM 36.3894 94.9191 276° West  Level Estimated
Fri 02:54:00 AM 36.4000 94.7861 276° West  Level Estimated
Fri 02:55:00 AM 36.4000 94.7861 North  Level Estimated
Fri 02:56:00 AM 36.4000 94.7861 North  Level Estimated
Fri 02:57:00 AM 36.4000 94.7861 North  Level Estimated
Fri 02:58:00 AM 36.4000 94.7861 North  Level Estimated
Fri 02:59:00 AM 36.4000 94.7861 North  Level Estimated
Fri 03:00:00 AM 36.4000 94.7861 North  Level Estimated
Fri 03:01:00 AM 36.4000 94.7861 North  Level Estimated
Fri 03:02:00 AM 36.4000 94.7861 North  Level Estimated
Fri 03:03:00 AM 36.4000 94.7861 North  Level Estimated
Fri 03:04:00 AM 36.4000 94.7861 North  Level Estimated
Fri 03:05:00 AM 36.4000 94.7861 North  Level Estimated
Fri 03:06:00 AM 36.4000 94.7861 North  Level Estimated
Fri 03:07:00 AM 36.4000 94.7861 North  Level Estimated
Fri 03:08:00 AM 36.4000 94.7861 North  Level Estimated
Fri 03:09:00 AM 36.4000 94.7861 North  Level Estimated
Fri 03:10:00 AM 36.4000 94.7861 North  Level Estimated

Login

Don't have an account? Register now (free) for customized features, flight alerts, and more!